createdAt,value
2018-10-02T00:00:01.300Z,7.3
2018-10-02T00:05:01.995Z,7.3
2018-10-02T00:10:02.396Z,7.4
2018-10-02T00:15:01.866Z,7.4
2018-10-02T00:20:02.588Z,7.4
2018-10-02T00:25:01.804Z,7.4
2018-10-02T00:30:01.478Z,7.4
2018-10-02T00:35:01.881Z,7.5
2018-10-02T00:40:01.869Z,7.5
2018-10-02T00:45:02.005Z,7.6
2018-10-02T00:50:01.717Z,7.6
2018-10-02T00:55:02.083Z,7.6
2018-10-02T01:00:01.899Z,7.6
2018-10-02T01:05:02.077Z,7.5
2018-10-02T01:10:01.926Z,7.6
2018-10-02T01:15:01.501Z,7.6
2018-10-02T01:20:02.079Z,7.6
2018-10-02T01:25:01.939Z,7.6
2018-10-02T01:30:02.383Z,7.6
2018-10-02T01:35:01.972Z,7.6
2018-10-02T01:40:01.208Z,7.6
2018-10-02T01:45:01.192Z,7.6
2018-10-02T01:50:02.374Z,7.6
2018-10-02T01:55:01.225Z,7.5
2018-10-02T02:00:01.404Z,7.4
2018-10-02T02:05:01.878Z,7.3
2018-10-02T02:10:01.638Z,7.3
2018-10-02T02:15:01.846Z,7.2
2018-10-02T02:20:01.596Z,7.3
2018-10-02T02:25:01.877Z,7.3
2018-10-02T02:30:02.029Z,7.4
2018-10-02T02:35:01.237Z,7.5
2018-10-02T02:40:01.431Z,7.5
2018-10-02T02:45:01.230Z,7.6
2018-10-02T02:50:01.338Z,7.6
2018-10-02T02:55:02.064Z,7.6
2018-10-02T03:00:01.257Z,7.7
2018-10-02T03:05:01.496Z,7.7
2018-10-02T03:10:01.859Z,7.7
2018-10-02T03:15:02.144Z,7.6
2018-10-02T03:20:02.055Z,7.6
2018-10-02T03:25:01.533Z,7.6
2018-10-02T03:30:01.845Z,7.6
2018-10-02T03:35:01.192Z,7.7
2018-10-02T03:40:01.992Z,7.7
2018-10-02T03:45:02.261Z,7.7
2018-10-02T03:50:02.109Z,7.7
2018-10-02T03:55:01.830Z,7.7
2018-10-02T04:00:02.246Z,7.7
2018-10-02T04:05:01.781Z,7.7
2018-10-02T04:10:01.920Z,7.7
2018-10-02T04:15:01.163Z,7.7
2018-10-02T04:20:02.349Z,7.7
2018-10-02T04:25:01.685Z,7.7
2018-10-02T04:30:01.258Z,7.7
2018-10-02T04:35:01.941Z,7.7
2018-10-02T04:40:02.458Z,7.7
2018-10-02T04:45:01.991Z,7.7
2018-10-02T04:50:01.710Z,7.7
2018-10-02T04:55:01.749Z,7.7
2018-10-02T05:00:01.486Z,7.7
2018-10-02T05:05:01.509Z,7.7
2018-10-02T05:10:01.173Z,7.7
2018-10-02T05:15:01.808Z,7.7
2018-10-02T05:20:01.728Z,7.6
2018-10-02T05:25:01.860Z,7.6
2018-10-02T05:30:01.436Z,7.6
2018-10-02T05:35:02.132Z,7.6
2018-10-02T05:40:01.685Z,7.7
2018-10-02T05:45:01.509Z,7.7
2018-10-02T05:50:02.305Z,7.7
2018-10-02T05:55:01.301Z,7.7
2018-10-02T06:00:02.377Z,7.7
2018-10-02T06:05:02.038Z,7.8
2018-10-02T06:10:02.200Z,7.8
2018-10-02T06:15:02.046Z,7.8
2018-10-02T06:20:01.438Z,7.8
2018-10-02T06:25:01.641Z,7.8
2018-10-02T06:30:01.213Z,7.9
2018-10-02T06:35:02.209Z,7.9
2018-10-02T06:40:01.737Z,7.9
2018-10-02T06:45:01.915Z,8
2018-10-02T06:50:01.590Z,8
2018-10-02T06:55:01.733Z,8
2018-10-02T07:00:01.233Z,8
2018-10-02T07:05:02.066Z,8.1
2018-10-02T07:10:02.071Z,8.2
2018-10-02T07:15:02.271Z,8.3
2018-10-02T07:20:01.182Z,8.4
2018-10-02T07:25:02.335Z,8.5
2018-10-02T07:30:01.725Z,8.5
2018-10-02T07:35:01.651Z,8.6
2018-10-02T07:40:02.037Z,8.6
2018-10-02T07:45:01.417Z,8.7
2018-10-02T07:50:01.971Z,8.7
2018-10-02T07:55:01.463Z,8.7
2018-10-02T08:00:02.070Z,8.7
2018-10-02T08:05:01.974Z,8.8
2018-10-02T08:10:01.716Z,8.9
2018-10-02T08:15:02.242Z,9
2018-10-02T08:20:01.605Z,9
2018-10-02T08:25:01.572Z,9.1
2018-10-02T08:30:01.371Z,9.1
2018-10-02T08:35:01.536Z,9
2018-10-02T08:40:01.718Z,9
2018-10-02T08:45:02.214Z,9
2018-10-02T08:50:01.869Z,9
2018-10-02T08:55:02.736Z,9
2018-10-02T09:00:01.465Z,9
2018-10-02T09:05:01.828Z,9
2018-10-02T09:10:02.309Z,8.9
2018-10-02T09:15:02.352Z,8.9
2018-10-02T09:20:01.621Z,8.8
2018-10-02T09:25:01.346Z,8.9
2018-10-02T09:30:01.857Z,8.8
2018-10-02T09:35:02.103Z,8.8
2018-10-02T09:40:02.042Z,8.8
2018-10-02T09:45:01.670Z,8.8
2018-10-02T09:50:01.791Z,8.9
2018-10-02T09:55:01.590Z,8.9
2018-10-02T10:00:02.108Z,8.8
2018-10-02T10:05:01.525Z,8.8
2018-10-02T10:10:01.514Z,8.8
2018-10-02T10:15:01.471Z,8.8
2018-10-02T10:20:01.461Z,8.8
2018-10-02T10:25:01.810Z,8.9
2018-10-02T10:30:01.871Z,8.9
2018-10-02T10:35:02.173Z,9
2018-10-02T10:40:01.994Z,9
2018-10-02T10:45:02.009Z,9.1
2018-10-02T10:50:01.594Z,9.2
2018-10-02T10:55:01.608Z,9.2
2018-10-02T11:00:02.078Z,9.2
2018-10-02T11:05:01.741Z,9.3
2018-10-02T11:10:01.934Z,9.3
2018-10-02T11:15:01.910Z,9.3
2018-10-02T11:20:01.457Z,9.4
2018-10-02T11:25:01.517Z,9.4
2018-10-02T11:30:02.135Z,9.5
2018-10-02T11:35:01.544Z,9.6
2018-10-02T11:40:02.211Z,9.6
2018-10-02T11:45:02.165Z,9.6
2018-10-02T11:50:01.537Z,9.6
2018-10-02T11:55:01.973Z,9.6
2018-10-02T12:00:02.430Z,9.7
2018-10-02T12:05:01.315Z,9.8
2018-10-02T12:10:01.353Z,9.9
2018-10-02T12:15:02.006Z,9.9
2018-10-02T12:20:01.926Z,9.9
2018-10-02T12:25:01.507Z,9.9
2018-10-02T12:30:02.131Z,9.9
2018-10-02T12:35:02.384Z,10
2018-10-02T12:40:01.385Z,10.1
2018-10-02T12:45:01.353Z,10.3
2018-10-02T12:50:01.203Z,10.3
2018-10-02T12:55:02.020Z,10.3
2018-10-02T13:00:01.531Z,10.3
2018-10-02T13:05:01.766Z,10.3
2018-10-02T13:10:02.639Z,10.4
2018-10-02T13:15:01.377Z,10.6
2018-10-02T13:20:02.045Z,10.7
2018-10-02T13:25:01.800Z,10.7
2018-10-02T13:30:01.518Z,10.8
2018-10-02T13:35:02.077Z,10.9
2018-10-02T13:40:01.718Z,11.1
2018-10-02T13:45:02.048Z,11.3
2018-10-02T13:50:01.675Z,11.3
2018-10-02T13:55:01.181Z,11.4
2018-10-02T14:00:01.825Z,11.5
2018-10-02T14:05:01.154Z,11.5
2018-10-02T14:10:02.039Z,11.6
2018-10-02T14:15:02.138Z,11.7
2018-10-02T14:20:01.450Z,11.8
2018-10-02T14:25:01.588Z,11.9
2018-10-02T14:30:01.501Z,12
2018-10-02T14:35:02.134Z,12.1
2018-10-02T14:40:01.234Z,12.1
2018-10-02T14:45:01.898Z,12.2
2018-10-02T14:50:02.463Z,12.3
2018-10-02T14:55:02.148Z,12.3
2018-10-02T15:00:01.497Z,12.5
2018-10-02T15:05:01.891Z,12.6
2018-10-02T15:10:01.535Z,12.7
2018-10-02T15:15:01.978Z,12.6
2018-10-02T15:20:02.046Z,12.7
2018-10-02T15:25:02.268Z,12.7
2018-10-02T15:30:01.485Z,12.8
2018-10-02T15:35:02.074Z,12.9
2018-10-02T15:40:01.163Z,12.9
2018-10-02T15:45:02.094Z,12.9
2018-10-02T15:50:01.989Z,12.9
2018-10-02T15:55:02.166Z,12.9
2018-10-02T16:00:01.434Z,13
2018-10-02T16:05:02.173Z,13.1
2018-10-02T16:10:01.214Z,13
2018-10-02T16:15:01.510Z,12.9
2018-10-02T16:20:01.427Z,12.8
2018-10-02T16:25:01.994Z,12.6
2018-10-02T16:30:01.442Z,12.6
2018-10-02T16:35:01.346Z,12.5
2018-10-02T16:40:01.742Z,12.4
2018-10-02T16:45:01.981Z,12.2
2018-10-02T16:50:01.844Z,12.1
2018-10-02T16:55:02.388Z,12
2018-10-02T17:00:01.999Z,11.9
2018-10-02T17:05:02.384Z,11.9
2018-10-02T17:10:01.340Z,11.9
2018-10-02T17:15:01.888Z,11.7
2018-10-02T17:20:01.587Z,11.7
2018-10-02T17:25:01.994Z,11.6
2018-10-02T17:30:02.070Z,11.5
2018-10-02T17:35:01.413Z,11.5
2018-10-02T17:40:02.046Z,11.5
2018-10-02T17:45:01.491Z,11.4
2018-10-02T17:50:01.527Z,11.4
2018-10-02T17:55:02.030Z,11.4
2018-10-02T18:00:01.609Z,11.3
2018-10-02T18:05:02.590Z,11.2
2018-10-02T18:10:01.892Z,11.1
2018-10-02T18:15:02.385Z,11.1
2018-10-02T18:20:01.509Z,11
2018-10-02T18:25:01.874Z,11
2018-10-02T18:30:01.980Z,11.1
2018-10-02T18:35:02.193Z,11.1
2018-10-02T18:40:01.658Z,11
2018-10-02T18:45:01.516Z,11
2018-10-02T18:50:01.301Z,11
2018-10-02T18:55:01.598Z,10.9
2018-10-02T19:00:02.182Z,11
2018-10-02T19:05:01.915Z,11
2018-10-02T19:10:01.804Z,10.9
2018-10-02T19:15:01.815Z,10.9
2018-10-02T19:20:02.166Z,10.8
2018-10-02T19:25:02.105Z,10.7
2018-10-02T19:30:01.327Z,10.7
2018-10-02T19:35:01.878Z,10.7
2018-10-02T19:40:02.054Z,10.6
2018-10-02T19:45:01.349Z,10.6
2018-10-02T19:50:02.140Z,10.6
2018-10-02T19:55:02.010Z,10.6
2018-10-02T20:00:01.569Z,10.6
2018-10-02T20:05:01.988Z,10.6
2018-10-02T20:10:01.592Z,10.6
2018-10-02T20:15:02.427Z,10.6
2018-10-02T20:20:01.677Z,10.6
2018-10-02T20:25:01.190Z,10.6
2018-10-02T20:30:01.697Z,10.6
2018-10-02T20:35:02.141Z,10.7
2018-10-02T20:40:01.957Z,10.9
2018-10-02T20:45:01.920Z,10.9
2018-10-02T20:50:01.913Z,10.9
2018-10-02T20:55:01.398Z,10.9
2018-10-02T21:00:01.477Z,10.9
2018-10-02T21:05:02.060Z,10.9
2018-10-02T21:10:01.187Z,10.6
2018-10-02T21:15:02.463Z,10.4
2018-10-02T21:20:02.185Z,10.3
2018-10-02T21:25:02.023Z,10.3
2018-10-02T21:30:01.982Z,10.2
2018-10-02T21:35:02.017Z,10.2
2018-10-02T21:40:02.168Z,10.2
2018-10-02T21:45:01.474Z,10.2
2018-10-02T21:50:02.379Z,10.1
2018-10-02T21:55:01.752Z,10.1
2018-10-02T22:00:01.445Z,10.2
2018-10-02T22:05:03.081Z,10.2
2018-10-02T22:10:01.812Z,10.2
2018-10-02T22:15:01.735Z,10.1
2018-10-02T22:20:02.213Z,10
2018-10-02T22:25:01.727Z,10
2018-10-02T22:30:01.610Z,10
2018-10-02T22:35:01.567Z,10
2018-10-02T22:40:01.570Z,10.1
2018-10-02T22:45:02.293Z,10
2018-10-02T22:50:01.875Z,10
2018-10-02T22:55:01.763Z,10
2018-10-02T23:00:01.985Z,9.9
2018-10-02T23:05:01.860Z,9.9
2018-10-02T23:10:01.967Z,9.9
2018-10-02T23:15:02.082Z,9.9
2018-10-02T23:20:01.997Z,9.9
2018-10-02T23:25:02.662Z,9.9
2018-10-02T23:30:02.047Z,9.9
2018-10-02T23:35:01.773Z,9.9
2018-10-02T23:40:01.701Z,9.9
2018-10-02T23:45:01.236Z,10
2018-10-02T23:50:01.651Z,10
2018-10-02T23:55:01.487Z,10.1
